EGLF Airport Information

Runway Information
Runway 06 Length 8005 ft width 148 ft
Elevation 225 ft Threshold 1772 ft Heading 62
Runway 24 Length 8005 ft Width 148 ft
Elevation 219 ft Threshold 2090 ft Heading 242
Airport Frequencies
Type APP Name APP Frequency 134.35 MHZ
Type ATIS Name ATIS Frequency 128.4 MHZ
Type DIR Name DIRECTOR Frequency 130.05 MHZ
Type LARS Name Farnboroug Frequency 123.225 MHZ
Type LARS Name Farnboroug Frequency 125.25 MHZ
Type LARS Name Farnboroug Frequency 132.8 MHZ
Type MISC Name Farnboroug Frequency 121.6 MHZ
Type OPS Name TAG Aviati Frequency 130.375 MHZ
Type TWR Name TWR Frequency 122.5 MHZ
Airport Navaids
Airport Weather Information & NOTAM
ADDS - METARS form results

(0300 UTC 19 September 2021)
Data provider http://aviationweather.gov/metar/data/
 
METAR text: EGLF 190250Z AUTO 24003KT 9999 NCD 11/11 Q1012
Conditions at: EGLF (FARNBOROUGH , GB) observed 0250 UTC 19 September 2021
Temperature: 11.0°C (52°F)
Dewpoint: 11.0°C (52°F) [RH = 100%]
Pressure (altimeter): 29.88 inches Hg (1012.0 mb)
Winds: from the WSW (240 degrees) at 3 MPH (3 knots; 1.5 m/s)
Visibility: 6 or more miles (10+ km)
Ceiling: at least 12,000 feet AGL
Clouds: sky clear below 12,000 feet AGL
Weather: no significant weather observed at this time

METAR text: EGLF 190220Z AUTO 23003KT 9999 NCD 11/10 Q1012
Conditions at: EGLF (FARNBOROUGH , GB) observed 0220 UTC 19 September 2021
Temperature: 11.0°C (52°F)
Dewpoint: 10.0°C (50°F) [RH = 94%]
Pressure (altimeter): 29.88 inches Hg (1012.0 mb)
Winds: from the SW (230 degrees) at 3 MPH (3 knots; 1.5 m/s)
Visibility: 6 or more miles (10+ km)
Ceiling: at least 12,000 feet AGL
Clouds: sky clear below 12,000 feet AGL
Weather: no significant weather observed at this time